sensor_id;sensor_type;location;lat;lon;timestamp;P1;P2;P0
47705;PMS5003;33471;52.104;1.318;2023-02-28T00:01:19;13;12;
47705;PMS5003;33471;52.104;1.318;2023-02-28T00:03:46;11;11;
47705;PMS5003;33471;52.104;1.318;2023-02-28T00:06:14;11;10;
47705;PMS5003;33471;52.104;1.318;2023-02-28T00:08:41;16;15;
47705;PMS5003;33471;52.104;1.318;2023-02-28T00:11:09;15;14;
47705;PMS5003;33471;52.104;1.318;2023-02-28T00:13:40;14;14;
47705;PMS5003;33471;52.104;1.318;2023-02-28T00:16:10;12;12;
47705;PMS5003;33471;52.104;1.318;2023-02-28T00:18:39;11;11;
47705;PMS5003;33471;52.104;1.318;2023-02-28T00:21:07;19;19;
47705;PMS5003;33471;52.104;1.318;2023-02-28T00:23:35;9;9;
47705;PMS5003;33471;52.104;1.318;2023-02-28T00:26:02;11;10;
47705;PMS5003;33471;52.104;1.318;2023-02-28T00:28:30;9;9;
47705;PMS5003;33471;52.104;1.318;2023-02-28T00:30:58;18;17;
47705;PMS5003;33471;52.104;1.318;2023-02-28T00:33:25;8;8;
47705;PMS5003;33471;52.104;1.318;2023-02-28T00:36:00;18;15;
47705;PMS5003;33471;52.104;1.318;2023-02-28T00:38:31;13;13;
47705;PMS5003;33471;52.104;1.318;2023-02-28T00:40:58;10;7;
47705;PMS5003;33471;52.104;1.318;2023-02-28T00:43:26;19;18;
47705;PMS5003;33471;52.104;1.318;2023-02-28T00:45:53;10;10;
47705;PMS5003;33471;52.104;1.318;2023-02-28T00:48:20;12;9;
47705;PMS5003;33471;52.104;1.318;2023-02-28T00:50:48;9;9;
47705;PMS5003;33471;52.104;1.318;2023-02-28T00:53:15;10;10;
47705;PMS5003;33471;52.104;1.318;2023-02-28T00:55:43;9;9;
47705;PMS5003;33471;52.104;1.318;2023-02-28T00:58:10;8;8;
47705;PMS5003;33471;52.104;1.318;2023-02-28T01:00:38;9;9;
47705;PMS5003;33471;52.104;1.318;2023-02-28T01:03:05;16;15;
47705;PMS5003;33471;52.104;1.318;2023-02-28T01:05:32;8;8;
47705;PMS5003;33471;52.104;1.318;2023-02-28T01:07:59;8;8;
47705;PMS5003;33471;52.104;1.318;2023-02-28T01:10:27;9;9;
47705;PMS5003;33471;52.104;1.318;2023-02-28T01:12:55;12;10;
47705;PMS5003;33471;52.104;1.318;2023-02-28T01:15:21;9;9;
47705;PMS5003;33471;52.104;1.318;2023-02-28T01:17:49;17;14;
47705;PMS5003;33471;52.104;1.318;2023-02-28T01:20:16;14;10;
47705;PMS5003;33471;52.104;1.318;2023-02-28T01:22:43;7;7;
47705;PMS5003;33471;52.104;1.318;2023-02-28T01:25:10;11;11;
47705;PMS5003;33471;52.104;1.318;2023-02-28T01:27:38;11;11;
47705;PMS5003;33471;52.104;1.318;2023-02-28T01:30:05;9;7;
47705;PMS5003;33471;52.104;1.318;2023-02-28T01:32:34;8;8;
47705;PMS5003;33471;52.104;1.318;2023-02-28T01:35:01;6;6;
47705;PMS5003;33471;52.104;1.318;2023-02-28T01:37:28;10;9;
47705;PMS5003;33471;52.104;1.318;2023-02-28T01:39:55;7;7;
47705;PMS5003;33471;52.104;1.318;2023-02-28T01:42:23;9;9;
47705;PMS5003;33471;52.104;1.318;2023-02-28T01:44:59;11;9;
47705;PMS5003;33471;52.104;1.318;2023-02-28T01:47:32;10;10;
47705;PMS5003;33471;52.104;1.318;2023-02-28T01:50:04;9;9;
47705;PMS5003;33471;52.104;1.318;2023-02-28T01:52:35;9;9;
47705;PMS5003;33471;52.104;1.318;2023-02-28T01:55:04;7;7;
47705;PMS5003;33471;52.104;1.318;2023-02-28T01:57:36;14;13;
47705;PMS5003;33471;52.104;1.318;2023-02-28T02:00:09;7;7;
47705;PMS5003;33471;52.104;1.318;2023-02-28T02:02:40;11;11;
47705;PMS5003;33471;52.104;1.318;2023-02-28T02:05:11;11;11;
47705;PMS5003;33471;52.104;1.318;2023-02-28T02:07:42;12;12;
47705;PMS5003;33471;52.104;1.318;2023-02-28T02:10:13;12;9;
47705;PMS5003;33471;52.104;1.318;2023-02-28T02:12:47;13;13;
47705;PMS5003;33471;52.104;1.318;2023-02-28T02:15:29;4;4;
47705;PMS5003;33471;52.104;1.318;2023-02-28T02:18:02;13;10;
47705;PMS5003;33471;52.104;1.318;2023-02-28T02:20:53;8;7;
47705;PMS5003;33471;52.104;1.318;2023-02-28T02:21:40;8;7;
47705;PMS5003;33471;52.104;1.318;2023-02-28T02:24:44;6;6;
47705;PMS5003;33471;52.104;1.318;2023-02-28T02:27:30;10;8;
47705;PMS5003;33471;52.104;1.318;2023-02-28T02:30:19;6;6;
47705;PMS5003;33471;52.104;1.318;2023-02-28T02:33:40;8;6;
47705;PMS5003;33471;52.104;1.318;2023-02-28T02:36:32;6;6;
47705;PMS5003;33471;52.104;1.318;2023-02-28T02:39:06;6;6;
47705;PMS5003;33471;52.104;1.318;2023-02-28T02:41:41;6;6;
47705;PMS5003;33471;52.104;1.318;2023-02-28T02:44:18;6;6;
47705;PMS5003;33471;52.104;1.318;2023-02-28T02:46:58;6;6;
47705;PMS5003;33471;52.104;1.318;2023-02-28T02:49:31;6;6;
47705;PMS5003;33471;52.104;1.318;2023-02-28T02:52:01;7;7;
47705;PMS5003;33471;52.104;1.318;2023-02-28T02:54:31;7;7;
47705;PMS5003;33471;52.104;1.318;2023-02-28T02:57:03;6;6;
47705;PMS5003;33471;52.104;1.318;2023-02-28T02:59:33;7;7;
47705;PMS5003;33471;52.104;1.318;2023-02-28T03:02:04;5;4;
47705;PMS5003;33471;52.104;1.318;2023-02-28T03:04:38;6;6;
47705;PMS5003;33471;52.104;1.318;2023-02-28T03:07:09;6;4;
47705;PMS5003;33471;52.104;1.318;2023-02-28T03:09:36;8;8;
47705;PMS5003;33471;52.104;1.318;2023-02-28T03:12:04;7;7;
47705;PMS5003;33471;52.104;1.318;2023-02-28T03:14:46;6;5;
47705;PMS5003;33471;52.104;1.318;2023-02-28T03:17:24;5;5;
47705;PMS5003;33471;52.104;1.318;2023-02-28T03:20:04;6;6;
47705;PMS5003;33471;52.104;1.318;2023-02-28T03:22:45;6;6;
47705;PMS5003;33471;52.104;1.318;2023-02-28T03:25:23;8;8;
47705;PMS5003;33471;52.104;1.318;2023-02-28T03:28:00;4;3;
47705;PMS5003;33471;52.104;1.318;2023-02-28T03:30:35;7;7;
47705;PMS5003;33471;52.104;1.318;2023-02-28T03:33:08;11;6;
47705;PMS5003;33471;52.104;1.318;2023-02-28T03:35:40;4;4;
47705;PMS5003;33471;52.104;1.318;2023-02-28T03:38:13;5;5;
47705;PMS5003;33471;52.104;1.318;2023-02-28T03:40:46;8;6;
47705;PMS5003;33471;52.104;1.318;2023-02-28T03:43:19;7;7;
47705;PMS5003;33471;52.104;1.318;2023-02-28T03:45:48;5;5;
47705;PMS5003;33471;52.104;1.318;2023-02-28T03:48:19;5;5;
47705;PMS5003;33471;52.104;1.318;2023-02-28T03:50:52;7;7;
47705;PMS5003;33471;52.104;1.318;2023-02-28T03:53:25;4;4;
47705;PMS5003;33471;52.104;1.318;2023-02-28T03:55:58;5;5;
47705;PMS5003;33471;52.104;1.318;2023-02-28T03:58:30;4;4;
47705;PMS5003;33471;52.104;1.318;2023-02-28T04:01:05;5;4;
47705;PMS5003;33471;52.104;1.318;2023-02-28T04:03:36;4;4;
47705;PMS5003;33471;52.104;1.318;2023-02-28T04:06:05;4;4;
47705;PMS5003;33471;52.104;1.318;2023-02-28T04:08:34;4;4;
47705;PMS5003;33471;52.104;1.318;2023-02-28T04:11:03;5;4;
47705;PMS5003;33471;52.104;1.318;2023-02-28T04:13:38;5;5;
47705;PMS5003;33471;52.104;1.318;2023-02-28T04:16:06;5;5;
47705;PMS5003;33471;52.104;1.318;2023-02-28T04:18:34;5;5;
47705;PMS5003;33471;52.104;1.318;2023-02-28T04:21:01;6;4;
47705;PMS5003;33471;52.104;1.318;2023-02-28T04:23:28;4;4;
47705;PMS5003;33471;52.104;1.318;2023-02-28T04:25:57;4;4;
47705;PMS5003;33471;52.104;1.318;2023-02-28T04:28:25;4;4;
47705;PMS5003;33471;52.104;1.318;2023-02-28T04:30:54;4;2;
47705;PMS5003;33471;52.104;1.318;2023-02-28T04:33:22;4;4;
47705;PMS5003;33471;52.104;1.318;2023-02-28T04:35:57;4;3;
47705;PMS5003;33471;52.104;1.318;2023-02-28T04:38:25;4;4;
47705;PMS5003;33471;52.104;1.318;2023-02-28T04:40:52;3;3;
47705;PMS5003;33471;52.104;1.318;2023-02-28T04:43:20;3;2;
47705;PMS5003;33471;52.104;1.318;2023-02-28T04:45:47;4;4;
47705;PMS5003;33471;52.104;1.318;2023-02-28T04:48:19;7;4;
47705;PMS5003;33471;52.104;1.318;2023-02-28T04:50:47;6;6;
47705;PMS5003;33471;52.104;1.318;2023-02-28T04:53:14;3;3;
47705;PMS5003;33471;52.104;1.318;2023-02-28T04:55:41;4;4;
47705;PMS5003;33471;52.104;1.318;2023-02-28T04:58:09;2;2;
47705;PMS5003;33471;52.104;1.318;2023-02-28T05:00:36;1;1;
47705;PMS5003;33471;52.104;1.318;2023-02-28T05:03:03;3;3;
47705;PMS5003;33471;52.104;1.318;2023-02-28T05:05:30;3;3;
47705;PMS5003;33471;52.104;1.318;2023-02-28T05:07:57;3;3;
47705;PMS5003;33471;52.104;1.318;2023-02-28T05:10:24;1;1;
47705;PMS5003;33471;52.104;1.318;2023-02-28T05:12:51;4;4;
47705;PMS5003;33471;52.104;1.318;2023-02-28T05:15:18;3;3;
47705;PMS5003;33471;52.104;1.318;2023-02-28T05:17:45;4;3;
47705;PMS5003;33471;52.104;1.318;2023-02-28T05:20:13;2;2;
47705;PMS5003;33471;52.104;1.318;2023-02-28T05:22:40;2;2;
47705;PMS5003;33471;52.104;1.318;2023-02-28T05:25:08;3;3;
47705;PMS5003;33471;52.104;1.318;2023-02-28T05:27:38;5;3;
47705;PMS5003;33471;52.104;1.318;2023-02-28T05:30:06;5;3;
47705;PMS5003;33471;52.104;1.318;2023-02-28T05:32:35;2;2;
47705;PMS5003;33471;52.104;1.318;2023-02-28T05:35:02;3;3;
47705;PMS5003;33471;52.104;1.318;2023-02-28T05:37:30;2;2;
47705;PMS5003;33471;52.104;1.318;2023-02-28T05:39:57;4;4;
47705;PMS5003;33471;52.104;1.318;2023-02-28T05:42:25;1;1;
47705;PMS5003;33471;52.104;1.318;2023-02-28T05:44:52;2;2;
47705;PMS5003;33471;52.104;1.318;2023-02-28T05:47:19;1;1;
47705;PMS5003;33471;52.104;1.318;2023-02-28T05:49:47;6;4;
47705;PMS5003;33471;52.104;1.318;2023-02-28T05:52:14;1;1;
47705;PMS5003;33471;52.104;1.318;2023-02-28T05:54:42;3;3;
47705;PMS5003;33471;52.104;1.318;2023-02-28T05:57:09;1;1;
47705;PMS5003;33471;52.104;1.318;2023-02-28T05:59:36;4;3;
47705;PMS5003;33471;52.104;1.318;2023-02-28T06:02:03;3;3;
47705;PMS5003;33471;52.104;1.318;2023-02-28T06:04:30;3;3;
47705;PMS5003;33471;52.104;1.318;2023-02-28T06:06:58;2;2;
47705;PMS5003;33471;52.104;1.318;2023-02-28T06:09:24;4;4;
47705;PMS5003;33471;52.104;1.318;2023-02-28T06:11:52;2;2;
47705;PMS5003;33471;52.104;1.318;2023-02-28T06:14:19;2;2;
47705;PMS5003;33471;52.104;1.318;2023-02-28T06:16:47;2;2;
47705;PMS5003;33471;52.104;1.318;2023-02-28T06:19:14;2;2;
47705;PMS5003;33471;52.104;1.318;2023-02-28T06:21:42;4;3;
47705;PMS5003;33471;52.104;1.318;2023-02-28T06:24:09;3;3;
47705;PMS5003;33471;52.104;1.318;2023-02-28T06:26:37;3;3;
47705;PMS5003;33471;52.104;1.318;2023-02-28T06:29:05;4;3;
47705;PMS5003;33471;52.104;1.318;2023-02-28T06:31:32;2;2;
47705;PMS5003;33471;52.104;1.318;2023-02-28T06:33:59;3;3;
47705;PMS5003;33471;52.104;1.318;2023-02-28T06:36:26;8;8;
47705;PMS5003;33471;52.104;1.318;2023-02-28T06:38:53;2;2;
47705;PMS5003;33471;52.104;1.318;2023-02-28T06:41:21;4;3;
47705;PMS5003;33471;52.104;1.318;2023-02-28T06:43:49;3;3;
47705;PMS5003;33471;52.104;1.318;2023-02-28T06:46:17;2;2;
47705;PMS5003;33471;52.104;1.318;2023-02-28T06:48:45;2;2;
47705;PMS5003;33471;52.104;1.318;2023-02-28T06:51:13;2;2;
47705;PMS5003;33471;52.104;1.318;2023-02-28T06:53:42;3;1;
47705;PMS5003;33471;52.104;1.318;2023-02-28T06:56:10;3;3;
47705;PMS5003;33471;52.104;1.318;2023-02-28T06:58:39;2;2;
47705;PMS5003;33471;52.104;1.318;2023-02-28T07:01:08;0;0;
47705;PMS5003;33471;52.104;1.318;2023-02-28T07:03:36;4;3;
47705;PMS5003;33471;52.104;1.318;2023-02-28T07:06:04;3;3;
47705;PMS5003;33471;52.104;1.318;2023-02-28T07:08:32;2;2;
47705;PMS5003;33471;52.104;1.318;2023-02-28T07:11:00;2;2;
47705;PMS5003;33471;52.104;1.318;2023-02-28T07:13:27;3;2;
47705;PMS5003;33471;52.104;1.318;2023-02-28T07:15:55;4;3;
47705;PMS5003;33471;52.104;1.318;2023-02-28T07:18:22;2;2;
47705;PMS5003;33471;52.104;1.318;2023-02-28T07:20:51;2;2;
47705;PMS5003;33471;52.104;1.318;2023-02-28T07:23:18;4;3;
47705;PMS5003;33471;52.104;1.318;2023-02-28T07:25:47;2;2;
47705;PMS5003;33471;52.104;1.318;2023-02-28T07:28:15;2;2;
47705;PMS5003;33471;52.104;1.318;2023-02-28T07:30:43;2;2;
47705;PMS5003;33471;52.104;1.318;2023-02-28T07:33:10;2;2;
47705;PMS5003;33471;52.104;1.318;2023-02-28T07:35:37;2;2;
47705;PMS5003;33471;52.104;1.318;2023-02-28T07:38:05;2;1;
47705;PMS5003;33471;52.104;1.318;2023-02-28T07:40:32;1;1;
47705;PMS5003;33471;52.104;1.318;2023-02-28T07:43:00;1;1;
47705;PMS5003;33471;52.104;1.318;2023-02-28T07:45:28;3;3;
47705;PMS5003;33471;52.104;1.318;2023-02-28T07:47:55;1;0;
47705;PMS5003;33471;52.104;1.318;2023-02-28T07:50:23;1;1;
47705;PMS5003;33471;52.104;1.318;2023-02-28T07:52:51;2;2;
47705;PMS5003;33471;52.104;1.318;2023-02-28T07:55:18;3;3;
47705;PMS5003;33471;52.104;1.318;2023-02-28T07:57:45;2;2;
47705;PMS5003;33471;52.104;1.318;2023-02-28T08:00:12;3;3;
47705;PMS5003;33471;52.104;1.318;2023-02-28T08:02:40;1;1;
47705;PMS5003;33471;52.104;1.318;2023-02-28T08:05:08;1;1;
47705;PMS5003;33471;52.104;1.318;2023-02-28T08:07:35;3;1;
47705;PMS5003;33471;52.104;1.318;2023-02-28T08:10:03;1;1;
47705;PMS5003;33471;52.104;1.318;2023-02-28T08:12:36;1;1;
47705;PMS5003;33471;52.104;1.318;2023-02-28T08:15:03;1;1;
47705;PMS5003;33471;52.104;1.318;2023-02-28T08:17:31;1;0;
47705;PMS5003;33471;52.104;1.318;2023-02-28T08:19:58;1;1;
47705;PMS5003;33471;52.104;1.318;2023-02-28T08:22:25;2;2;
47705;PMS5003;33471;52.104;1.318;2023-02-28T08:24:52;3;2;
47705;PMS5003;33471;52.104;1.318;2023-02-28T08:27:20;2;2;
47705;PMS5003;33471;52.104;1.318;2023-02-28T08:29:47;1;1;
47705;PMS5003;33471;52.104;1.318;2023-02-28T08:32:14;1;1;
47705;PMS5003;33471;52.104;1.318;2023-02-28T08:34:41;4;4;
47705;PMS5003;33471;52.104;1.318;2023-02-28T08:37:08;2;2;
47705;PMS5003;33471;52.104;1.318;2023-02-28T08:39:35;1;1;
47705;PMS5003;33471;52.104;1.318;2023-02-28T08:42:03;6;6;
47705;PMS5003;33471;52.104;1.318;2023-02-28T08:44:32;1;1;
47705;PMS5003;33471;52.104;1.318;2023-02-28T08:46:59;1;1;
47705;PMS5003;33471;52.104;1.318;2023-02-28T08:49:26;3;2;
47705;PMS5003;33471;52.104;1.318;2023-02-28T08:51:53;1;1;
47705;PMS5003;33471;52.104;1.318;2023-02-28T08:54:20;2;2;
47705;PMS5003;33471;52.104;1.318;2023-02-28T08:56:47;2;2;
47705;PMS5003;33471;52.104;1.318;2023-02-28T08:59:15;2;2;
47705;PMS5003;33471;52.104;1.318;2023-02-28T09:01:42;1;1;
47705;PMS5003;33471;52.104;1.318;2023-02-28T09:04:10;2;1;
47705;PMS5003;33471;52.104;1.318;2023-02-28T09:06:37;0;0;
47705;PMS5003;33471;52.104;1.318;2023-02-28T09:09:05;0;0;
47705;PMS5003;33471;52.104;1.318;2023-02-28T09:11:33;1;1;
47705;PMS5003;33471;52.104;1.318;2023-02-28T09:14:01;1;1;
47705;PMS5003;33471;52.104;1.318;2023-02-28T09:16:29;1;1;
47705;PMS5003;33471;52.104;1.318;2023-02-28T09:18:57;2;2;
47705;PMS5003;33471;52.104;1.318;2023-02-28T09:21:24;3;2;
47705;PMS5003;33471;52.104;1.318;2023-02-28T09:23:52;1;1;
47705;PMS5003;33471;52.104;1.318;2023-02-28T09:26:20;1;1;
47705;PMS5003;33471;52.104;1.318;2023-02-28T09:28:49;2;1;
47705;PMS5003;33471;52.104;1.318;2023-02-28T09:31:18;0;0;
47705;PMS5003;33471;52.104;1.318;2023-02-28T09:33:47;1;1;
47705;PMS5003;33471;52.104;1.318;2023-02-28T09:36:15;2;2;
47705;PMS5003;33471;52.104;1.318;2023-02-28T09:38:42;1;1;
47705;PMS5003;33471;52.104;1.318;2023-02-28T09:41:15;1;0;
47705;PMS5003;33471;52.104;1.318;2023-02-28T09:43:45;1;1;
47705;PMS5003;33471;52.104;1.318;2023-02-28T09:46:21;2;2;
47705;PMS5003;33471;52.104;1.318;2023-02-28T09:48:55;1;1;
47705;PMS5003;33471;52.104;1.318;2023-02-28T09:51:30;2;2;
47705;PMS5003;33471;52.104;1.318;2023-02-28T09:54:05;2;1;
47705;PMS5003;33471;52.104;1.318;2023-02-28T09:56:36;3;2;
47705;PMS5003;33471;52.104;1.318;2023-02-28T09:59:11;1;1;
47705;PMS5003;33471;52.104;1.318;2023-02-28T10:01:47;1;1;
47705;PMS5003;33471;52.104;1.318;2023-02-28T10:04:27;1;1;
47705;PMS5003;33471;52.104;1.318;2023-02-28T10:07:07;0;0;
47705;PMS5003;33471;52.104;1.318;2023-02-28T10:09:43;2;2;
47705;PMS5003;33471;52.104;1.318;2023-02-28T10:12:13;2;2;
47705;PMS5003;33471;52.104;1.318;2023-02-28T10:14:45;0;0;
47705;PMS5003;33471;52.104;1.318;2023-02-28T10:17:17;1;1;
47705;PMS5003;33471;52.104;1.318;2023-02-28T10:19:50;1;1;
47705;PMS5003;33471;52.104;1.318;2023-02-28T10:22:27;1;1;
47705;PMS5003;33471;52.104;1.318;2023-02-28T10:25:00;1;1;
47705;PMS5003;33471;52.104;1.318;2023-02-28T10:27:29;3;3;
47705;PMS5003;33471;52.104;1.318;2023-02-28T10:29:58;2;2;
47705;PMS5003;33471;52.104;1.318;2023-02-28T10:32:28;3;3;
47705;PMS5003;33471;52.104;1.318;2023-02-28T10:34:59;10;10;
47705;PMS5003;33471;52.104;1.318;2023-02-28T10:37:33;4;3;
47705;PMS5003;33471;52.104;1.318;2023-02-28T10:40:00;4;4;
47705;PMS5003;33471;52.104;1.318;2023-02-28T10:42:30;0;0;
47705;PMS5003;33471;52.104;1.318;2023-02-28T10:45:09;0;0;
47705;PMS5003;33471;52.104;1.318;2023-02-28T10:47:41;1;1;
47705;PMS5003;33471;52.104;1.318;2023-02-28T10:50:26;1;1;
47705;PMS5003;33471;52.104;1.318;2023-02-28T10:53:04;2;2;
47705;PMS5003;33471;52.104;1.318;2023-02-28T10:55:40;0;0;
47705;PMS5003;33471;52.104;1.318;2023-02-28T10:58:18;1;1;
47705;PMS5003;33471;52.104;1.318;2023-02-28T11:00:48;1;1;
47705;PMS5003;33471;52.104;1.318;2023-02-28T11:03:23;0;0;
47705;PMS5003;33471;52.104;1.318;2023-02-28T11:05:55;0;0;
47705;PMS5003;33471;52.104;1.318;2023-02-28T11:08:23;3;3;
47705;PMS5003;33471;52.104;1.318;2023-02-28T11:10:54;1;1;
47705;PMS5003;33471;52.104;1.318;2023-02-28T11:13:25;3;2;
47705;PMS5003;33471;52.104;1.318;2023-02-28T11:15:57;0;0;
47705;PMS5003;33471;52.104;1.318;2023-02-28T11:18:27;1;1;
47705;PMS5003;33471;52.104;1.318;2023-02-28T11:20:58;0;0;
47705;PMS5003;33471;52.104;1.318;2023-02-28T11:23:28;1;1;
47705;PMS5003;33471;52.104;1.318;2023-02-28T11:26:00;0;0;
47705;PMS5003;33471;52.104;1.318;2023-02-28T11:28:30;0;0;
47705;PMS5003;33471;52.104;1.318;2023-02-28T11:31:01;1;1;
47705;PMS5003;33471;52.104;1.318;2023-02-28T11:33:37;1;1;
47705;PMS5003;33471;52.104;1.318;2023-02-28T11:36:11;0;0;
47705;PMS5003;33471;52.104;1.318;2023-02-28T11:38:40;0;0;
47705;PMS5003;33471;52.104;1.318;2023-02-28T11:41:13;1;1;
47705;PMS5003;33471;52.104;1.318;2023-02-28T11:43:54;0;0;
47705;PMS5003;33471;52.104;1.318;2023-02-28T11:46:32;1;0;
47705;PMS5003;33471;52.104;1.318;2023-02-28T11:49:07;8;7;
47705;PMS5003;33471;52.104;1.318;2023-02-28T11:51:47;6;6;
47705;PMS5003;33471;52.104;1.318;2023-02-28T11:54:23;6;6;
47705;PMS5003;33471;52.104;1.318;2023-02-28T11:57:00;7;4;
47705;PMS5003;33471;52.104;1.318;2023-02-28T11:59:46;0;0;
47705;PMS5003;33471;52.104;1.318;2023-02-28T12:02:25;1;0;
47705;PMS5003;33471;52.104;1.318;2023-02-28T12:05:01;3;3;
47705;PMS5003;33471;52.104;1.318;2023-02-28T12:07:57;2;1;
47705;PMS5003;33471;52.104;1.318;2023-02-28T12:10:34;0;0;
47705;PMS5003;33471;52.104;1.318;2023-02-28T12:13:12;2;2;
47705;PMS5003;33471;52.104;1.318;2023-02-28T12:15:52;0;0;
47705;PMS5003;33471;52.104;1.318;2023-02-28T12:18:39;0;0;
47705;PMS5003;33471;52.104;1.318;2023-02-28T12:21:19;1;1;
47705;PMS5003;33471;52.104;1.318;2023-02-28T12:24:01;0;0;
47705;PMS5003;33471;52.104;1.318;2023-02-28T12:26:42;0;0;
47705;PMS5003;33471;52.104;1.318;2023-02-28T12:29:14;1;1;
47705;PMS5003;33471;52.104;1.318;2023-02-28T12:31:47;1;1;
47705;PMS5003;33471;52.104;1.318;2023-02-28T12:34:20;0;0;
47705;PMS5003;33471;52.104;1.318;2023-02-28T12:36:52;1;1;
47705;PMS5003;33471;52.104;1.318;2023-02-28T12:39:23;0;0;
47705;PMS5003;33471;52.104;1.318;2023-02-28T12:41:56;0;0;
47705;PMS5003;33471;52.104;1.318;2023-02-28T12:44:30;1;1;
47705;PMS5003;33471;52.104;1.318;2023-02-28T12:47:02;1;1;
47705;PMS5003;33471;52.104;1.318;2023-02-28T12:49:33;2;2;
47705;PMS5003;33471;52.104;1.318;2023-02-28T12:52:05;0;0;
47705;PMS5003;33471;52.104;1.318;2023-02-28T12:54:35;1;1;
47705;PMS5003;33471;52.104;1.318;2023-02-28T12:57:09;0;0;
47705;PMS5003;33471;52.104;1.318;2023-02-28T12:59:45;2;2;
47705;PMS5003;33471;52.104;1.318;2023-02-28T13:02:27;2;2;
47705;PMS5003;33471;52.104;1.318;2023-02-28T13:03:09;2;2;
47705;PMS5003;33471;52.104;1.318;2023-02-28T13:05:58;1;1;
47705;PMS5003;33471;52.104;1.318;2023-02-28T13:08:57;0;0;
47705;PMS5003;33471;52.104;1.318;2023-02-28T13:11:29;0;0;
47705;PMS5003;33471;52.104;1.318;2023-02-28T13:14:00;2;2;
47705;PMS5003;33471;52.104;1.318;2023-02-28T13:16:42;3;2;
47705;PMS5003;33471;52.104;1.318;2023-02-28T13:19:18;0;0;
47705;PMS5003;33471;52.104;1.318;2023-02-28T13:21:49;0;0;
47705;PMS5003;33471;52.104;1.318;2023-02-28T13:24:40;0;0;
47705;PMS5003;33471;52.104;1.318;2023-02-28T13:27:11;0;0;
47705;PMS5003;33471;52.104;1.318;2023-02-28T13:27:50;0;0;
47705;PMS5003;33471;52.104;1.318;2023-02-28T13:31:06;1;1;
47705;PMS5003;33471;52.104;1.318;2023-02-28T13:33:33;1;1;
47705;PMS5003;33471;52.104;1.318;2023-02-28T13:36:10;1;1;
47705;PMS5003;33471;52.104;1.318;2023-02-28T13:38:51;1;1;
47705;PMS5003;33471;52.104;1.318;2023-02-28T13:41:52;5;5;
47705;PMS5003;33471;52.104;1.318;2023-02-28T13:44:19;0;0;
47705;PMS5003;33471;52.104;1.318;2023-02-28T13:47:21;0;0;
47705;PMS5003;33471;52.104;1.318;2023-02-28T13:49:54;1;1;
47705;PMS5003;33471;52.104;1.318;2023-02-28T13:52:48;1;1;
47705;PMS5003;33471;52.104;1.318;2023-02-28T13:55:25;1;1;
47705;PMS5003;33471;52.104;1.318;2023-02-28T13:58:03;1;1;
47705;PMS5003;33471;52.104;1.318;2023-02-28T14:00:41;1;1;
47705;PMS5003;33471;52.104;1.318;2023-02-28T14:03:28;2;2;
47705;PMS5003;33471;52.104;1.318;2023-02-28T14:06:16;3;3;
47705;PMS5003;33471;52.104;1.318;2023-02-28T14:08:51;2;2;
47705;PMS5003;33471;52.104;1.318;2023-02-28T14:11:26;4;4;
47705;PMS5003;33471;52.104;1.318;2023-02-28T14:13:57;6;5;
47705;PMS5003;33471;52.104;1.318;2023-02-28T14:16:25;9;7;
47705;PMS5003;33471;52.104;1.318;2023-02-28T14:18:56;6;5;
47705;PMS5003;33471;52.104;1.318;2023-02-28T14:21:27;5;5;
47705;PMS5003;33471;52.104;1.318;2023-02-28T14:24:38;1;1;
47705;PMS5003;33471;52.104;1.318;2023-02-28T14:27:27;0;0;
47705;PMS5003;33471;52.104;1.318;2023-02-28T14:30:07;0;0;
47705;PMS5003;33471;52.104;1.318;2023-02-28T14:32:45;1;1;
47705;PMS5003;33471;52.104;1.318;2023-02-28T14:35:25;0;0;
47705;PMS5003;33471;52.104;1.318;2023-02-28T14:38:14;1;1;
47705;PMS5003;33471;52.104;1.318;2023-02-28T14:40:45;0;0;
47705;PMS5003;33471;52.104;1.318;2023-02-28T14:43:19;0;0;
47705;PMS5003;33471;52.104;1.318;2023-02-28T14:45:49;1;1;
47705;PMS5003;33471;52.104;1.318;2023-02-28T14:48:17;1;1;
47705;PMS5003;33471;52.104;1.318;2023-02-28T14:50:48;1;1;
47705;PMS5003;33471;52.104;1.318;2023-02-28T14:53:18;0;0;
47705;PMS5003;33471;52.104;1.318;2023-02-28T14:55:48;0;0;
47705;PMS5003;33471;52.104;1.318;2023-02-28T14:58:21;0;0;
47705;PMS5003;33471;52.104;1.318;2023-02-28T15:00:50;0;0;
47705;PMS5003;33471;52.104;1.318;2023-02-28T15:03:20;1;1;
47705;PMS5003;33471;52.104;1.318;2023-02-28T15:05:52;1;1;
47705;PMS5003;33471;52.104;1.318;2023-02-28T15:08:21;1;1;
47705;PMS5003;33471;52.104;1.318;2023-02-28T15:10:51;2;2;
47705;PMS5003;33471;52.104;1.318;2023-02-28T15:13:21;3;3;
47705;PMS5003;33471;52.104;1.318;2023-02-28T15:15:51;3;2;
47705;PMS5003;33471;52.104;1.318;2023-02-28T15:18:23;3;3;
47705;PMS5003;33471;52.104;1.318;2023-02-28T15:20:58;1;1;
47705;PMS5003;33471;52.104;1.318;2023-02-28T15:23:29;2;2;
47705;PMS5003;33471;52.104;1.318;2023-02-28T15:25:57;0;0;
47705;PMS5003;33471;52.104;1.318;2023-02-28T15:28:26;1;1;
47705;PMS5003;33471;52.104;1.318;2023-02-28T15:30:56;2;2;
47705;PMS5003;33471;52.104;1.318;2023-02-28T15:33:26;1;1;
47705;PMS5003;33471;52.104;1.318;2023-02-28T15:36:12;0;0;
47705;PMS5003;33471;52.104;1.318;2023-02-28T15:38:41;4;3;
47705;PMS5003;33471;52.104;1.318;2023-02-28T15:41:35;0;0;
47705;PMS5003;33471;52.104;1.318;2023-02-28T15:44:38;2;0;
47705;PMS5003;33471;52.104;1.318;2023-02-28T15:47:06;3;1;
47705;PMS5003;33471;52.104;1.318;2023-02-28T15:49:45;3;3;
47705;PMS5003;33471;52.104;1.318;2023-02-28T15:52:16;0;0;
47705;PMS5003;33471;52.104;1.318;2023-02-28T15:54:46;2;1;
47705;PMS5003;33471;52.104;1.318;2023-02-28T15:57:14;1;1;
47705;PMS5003;33471;52.104;1.318;2023-02-28T15:59:48;2;2;
47705;PMS5003;33471;52.104;1.318;2023-02-28T16:02:19;1;1;
47705;PMS5003;33471;52.104;1.318;2023-02-28T16:04:57;3;3;
47705;PMS5003;33471;52.104;1.318;2023-02-28T16:07:26;5;5;
47705;PMS5003;33471;52.104;1.318;2023-02-28T16:09:55;4;4;
47705;PMS5003;33471;52.104;1.318;2023-02-28T16:12:24;3;3;
47705;PMS5003;33471;52.104;1.318;2023-02-28T16:14:54;3;3;
47705;PMS5003;33471;52.104;1.318;2023-02-28T16:17:24;4;4;
47705;PMS5003;33471;52.104;1.318;2023-02-28T16:19:53;3;3;
47705;PMS5003;33471;52.104;1.318;2023-02-28T16:22:21;5;5;
47705;PMS5003;33471;52.104;1.318;2023-02-28T16:24:48;5;5;
47705;PMS5003;33471;52.104;1.318;2023-02-28T16:27:17;3;3;
47705;PMS5003;33471;52.104;1.318;2023-02-28T16:29:47;2;2;
47705;PMS5003;33471;52.104;1.318;2023-02-28T16:32:15;4;4;
47705;PMS5003;33471;52.104;1.318;2023-02-28T16:34:43;4;3;
47705;PMS5003;33471;52.104;1.318;2023-02-28T16:37:12;3;3;
47705;PMS5003;33471;52.104;1.318;2023-02-28T16:39:41;3;3;
47705;PMS5003;33471;52.104;1.318;2023-02-28T16:42:11;4;4;
47705;PMS5003;33471;52.104;1.318;2023-02-28T16:44:44;5;4;
47705;PMS5003;33471;52.104;1.318;2023-02-28T16:47:12;3;3;
47705;PMS5003;33471;52.104;1.318;2023-02-28T16:49:39;5;5;
47705;PMS5003;33471;52.104;1.318;2023-02-28T16:52:07;3;3;
47705;PMS5003;33471;52.104;1.318;2023-02-28T16:54:34;6;6;
47705;PMS5003;33471;52.104;1.318;2023-02-28T16:57:01;6;6;
47705;PMS5003;33471;52.104;1.318;2023-02-28T16:59:29;9;9;
47705;PMS5003;33471;52.104;1.318;2023-02-28T17:01:58;20;14;
47705;PMS5003;33471;52.104;1.318;2023-02-28T17:04:26;10;10;
47705;PMS5003;33471;52.104;1.318;2023-02-28T17:06:54;7;7;
47705;PMS5003;33471;52.104;1.318;2023-02-28T17:09:22;7;6;
47705;PMS5003;33471;52.104;1.318;2023-02-28T17:11:50;10;8;
47705;PMS5003;33471;52.104;1.318;2023-02-28T17:14:17;16;16;